Time;durP1;ratioP1;P1;durP2;ratioP2;P2;SDS_P1;SDS_P2;PMS_P1;PMS_P2;Temp;Humidity;BMP_temperature;BMP_pressure;BME280_temperature;BME280_humidity;BME280_pressure;Samples;Min_cycle;Max_cycle;Signal;HPM_P1;HPM_P2
2023/04/19 00:01:00;;;;;;;12.50;6.68;;;9.40;99.90;;;;;;5025616;28;20142;-38
2023/04/19 00:03:27;;;;;;;10.27;6.40;;;9.30;99.90;;;;;;5021590;28;20469;-36
2023/04/19 00:05:58;;;;;;;9.40;5.53;;;9.30;99.90;;;;;;5020938;28;20058;-37
2023/04/19 00:08:25;;;;;;;11.05;6.70;;;9.30;99.90;;;;;;5037150;28;20502;-36
2023/04/19 00:10:50;;;;;;;9.73;6.60;;;9.30;99.90;;;;;;5032198;28;20137;-36
2023/04/19 00:13:16;;;;;;;8.77;5.57;;;9.30;99.90;;;;;;5041316;28;20468;-36
2023/04/19 00:15:42;;;;;;;10.00;5.40;;;9.30;99.90;;;;;;5028023;28;20099;-38
2023/04/19 00:18:07;;;;;;;12.13;6.53;;;9.30;99.90;;;;;;5031696;28;20045;-37
2023/04/19 00:20:33;;;;;;;11.18;5.63;;;9.30;99.90;;;;;;5030654;28;20060;-36
2023/04/19 00:22:59;;;;;;;10.15;5.38;;;9.30;99.90;;;;;;5021642;28;20053;-37
2023/04/19 00:25:27;;;;;;;9.27;6.10;;;9.30;99.90;;;;;;5033626;28;20049;-36
2023/04/19 00:27:52;;;;;;;12.15;6.40;;;9.20;99.90;;;;;;5032125;28;20049;-37
2023/04/19 00:30:18;;;;;;;12.45;5.78;;;9.20;99.90;;;;;;5018266;28;20570;-36
2023/04/19 00:32:44;;;;;;;11.13;7.03;;;9.20;99.90;;;;;;5039743;28;20497;-36
2023/04/19 00:35:09;;;;;;;13.35;6.05;;;9.20;99.90;;;;;;5026461;28;20053;-37
2023/04/19 00:37:35;;;;;;;9.32;5.93;;;9.20;99.90;;;;;;5034118;28;20048;-38
2023/04/19 00:40:01;;;;;;;10.23;5.85;;;9.10;99.90;;;;;;5030015;28;20045;-38
2023/04/19 00:42:26;;;;;;;10.23;6.35;;;9.10;99.90;;;;;;5016616;28;20523;-38
2023/04/19 00:44:52;;;;;;;9.25;5.70;;;9.10;99.90;;;;;;5042068;28;20556;-36
2023/04/19 00:47:17;;;;;;;10.25;6.38;;;9.10;99.90;;;;;;5044748;28;20092;-39
2023/04/19 00:49:43;;;;;;;12.57;6.22;;;9.10;99.90;;;;;;5025412;28;20463;-36
2023/04/19 00:52:09;;;;;;;15.80;6.25;;;9.10;99.90;;;;;;5018423;28;20655;-37
2023/04/19 00:54:36;;;;;;;11.20;5.93;;;9.00;99.90;;;;;;5023426;28;20427;-36
2023/04/19 00:57:01;;;;;;;12.30;6.13;;;9.00;99.90;;;;;;5030937;28;20071;-36
2023/04/19 00:59:28;;;;;;;9.82;5.05;;;9.00;99.90;;;;;;5028470;28;20062;-37
2023/04/19 01:01:53;;;;;;;9.00;5.90;;;8.90;99.90;;;;;;5046749;28;20448;-37
2023/04/19 01:04:20;;;;;;;12.40;5.97;;;8.90;99.90;;;;;;5037411;28;20152;-37
2023/04/19 01:06:45;;;;;;;11.55;6.07;;;8.90;99.90;;;;;;5028731;28;20053;-37
2023/04/19 01:09:11;;;;;;;12.93;6.60;;;8.80;99.90;;;;;;5028505;28;20392;-37
2023/04/19 01:11:37;;;;;;;9.95;5.75;;;8.80;99.90;;;;;;5026486;28;20049;-37
2023/04/19 01:14:02;;;;;;;12.38;6.40;;;8.80;99.90;;;;;;5015505;28;20076;-36
2023/04/19 01:16:28;;;;;;;10.82;5.30;;;8.70;99.90;;;;;;5035697;28;20049;-36
2023/04/19 01:18:54;;;;;;;9.88;5.60;;;8.70;99.90;;;;;;5024209;28;20057;-36
2023/04/19 01:21:21;;;;;;;9.95;5.13;;;8.70;99.90;;;;;;5019936;28;20046;-37
2023/04/19 01:23:47;;;;;;;11.15;6.07;;;8.70;99.90;;;;;;5044362;28;20060;-37
2023/04/19 01:26:12;;;;;;;9.85;5.53;;;8.70;99.90;;;;;;5046500;28;20065;-37
2023/04/19 01:28:38;;;;;;;10.35;5.38;;;8.70;99.90;;;;;;5044845;28;20041;-37
2023/04/19 01:31:04;;;;;;;9.45;5.07;;;8.70;99.90;;;;;;5033662;28;20683;-38
2023/04/19 01:33:29;;;;;;;8.90;4.90;;;8.80;99.90;;;;;;5018065;28;20474;-40
2023/04/19 01:35:55;;;;;;;11.57;4.90;;;8.80;99.90;;;;;;5025792;28;20100;-37
2023/04/19 01:38:20;;;;;;;10.02;5.35;;;8.80;99.90;;;;;;5030225;28;20069;-37
2023/04/19 01:40:46;;;;;;;7.82;5.03;;;8.80;99.90;;;;;;5035205;28;20052;-37
2023/04/19 01:43:13;;;;;;;8.48;5.20;;;8.90;99.90;;;;;;5019631;28;20124;-38
2023/04/19 01:45:39;;;;;;;9.13;5.05;;;8.90;99.90;;;;;;5028827;28;20049;-38
2023/04/19 01:48:05;;;;;;;8.90;4.90;;;9.00;99.90;;;;;;5028100;28;20543;-37
2023/04/19 01:50:31;;;;;;;7.90;4.95;;;9.00;99.90;;;;;;5032021;28;20044;-37
2023/04/19 01:52:57;;;;;;;8.90;4.70;;;9.00;99.90;;;;;;5030475;28;20064;-37
2023/04/19 01:55:23;;;;;;;6.80;3.97;;;9.00;99.90;;;;;;5040674;28;20060;-37
2023/04/19 01:57:51;;;;;;;9.13;4.78;;;9.00;99.90;;;;;;5045773;28;20068;-37
2023/04/19 02:00:17;;;;;;;8.07;4.60;;;9.00;99.90;;;;;;5040273;28;20042;-37
2023/04/19 02:02:43;;;;;;;8.80;4.78;;;9.00;99.90;;;;;;5028509;28;20067;-38
2023/04/19 02:05:10;;;;;;;8.45;4.80;;;9.00;99.90;;;;;;5035637;28;20422;-36
2023/04/19 02:07:36;;;;;;;10.20;5.10;;;9.00;99.90;;;;;;5031409;28;20045;-38
2023/04/19 02:10:02;;;;;;;8.30;4.10;;;9.00;99.90;;;;;;5013650;28;20480;-37
2023/04/19 02:12:29;;;;;;;8.88;3.90;;;9.00;99.90;;;;;;5022264;28;20129;-37
2023/04/19 02:14:58;;;;;;;8.95;4.75;;;9.00;99.90;;;;;;5022786;28;20148;-37
2023/04/19 02:17:24;;;;;;;7.90;4.40;;;9.00;99.90;;;;;;5028705;28;20054;-36
2023/04/19 02:19:50;;;;;;;7.82;4.03;;;9.00;99.90;;;;;;5016186;28;20068;-36
2023/04/19 02:22:17;;;;;;;8.65;4.38;;;9.00;99.90;;;;;;5026616;28;20055;-37
2023/04/19 02:24:43;;;;;;;9.00;4.18;;;9.00;99.90;;;;;;5039402;28;20491;-36
2023/04/19 02:27:09;;;;;;;7.30;4.13;;;9.00;99.90;;;;;;5023633;28;20073;-37
2023/04/19 02:29:35;;;;;;;6.85;3.50;;;9.00;99.90;;;;;;5024954;28;20049;-34
2023/04/19 02:32:04;;;;;;;7.18;4.32;;;9.00;99.90;;;;;;5027542;28;20088;-37
2023/04/19 02:34:30;;;;;;;9.13;3.90;;;9.00;99.90;;;;;;5018432;28;20053;-37
2023/04/19 02:36:56;;;;;;;6.72;4.18;;;8.90;99.90;;;;;;5023622;28;20150;-37
2023/04/19 02:39:22;;;;;;;8.48;4.20;;;8.90;99.90;;;;;;5026009;28;20128;-37
2023/04/19 02:41:48;;;;;;;6.32;4.22;;;8.90;99.90;;;;;;5021440;28;20517;-37
2023/04/19 02:44:13;;;;;;;7.70;3.78;;;8.80;99.90;;;;;;5039572;28;20116;-36
2023/04/19 02:46:39;;;;;;;7.15;3.85;;;8.90;99.90;;;;;;5029485;28;20092;-36
2023/04/19 02:49:05;;;;;;;7.68;4.05;;;8.80;99.90;;;;;;5041854;28;20140;-37
2023/04/19 02:51:30;;;;;;;9.45;4.05;;;8.80;99.90;;;;;;5033435;28;20140;-36
2023/04/19 02:53:56;;;;;;;7.70;4.10;;;8.80;99.90;;;;;;5008563;28;20077;-38
2023/04/19 02:56:22;;;;;;;7.97;4.45;;;8.80;99.90;;;;;;5027221;28;20095;-38
2023/04/19 02:58:47;;;;;;;7.47;3.90;;;8.80;99.90;;;;;;5038202;28;20077;-37
2023/04/19 03:01:13;;;;;;;7.47;3.60;;;8.80;99.90;;;;;;5028764;28;20078;-36
2023/04/19 03:03:39;;;;;;;9.30;3.88;;;8.80;99.90;;;;;;5036075;28;20057;-36
2023/04/19 03:06:04;;;;;;;6.80;3.90;;;8.80;99.90;;;;;;5035872;28;20554;-37
2023/04/19 03:08:30;;;;;;;7.65;4.05;;;8.70;99.90;;;;;;5015230;28;20038;-37
2023/04/19 03:10:56;;;;;;;7.07;3.97;;;8.70;99.90;;;;;;5025693;28;20083;-36
2023/04/19 03:13:21;;;;;;;8.00;3.92;;;8.70;99.90;;;;;;5037831;28;20095;-38
2023/04/19 03:15:47;;;;;;;10.57;3.83;;;8.70;99.90;;;;;;5022097;28;20045;-36
2023/04/19 03:18:13;;;;;;;6.97;4.18;;;8.70;99.90;;;;;;5026410;28;20049;-38
2023/04/19 03:20:38;;;;;;;10.48;4.28;;;8.70;99.90;;;;;;5034348;28;20040;-37
2023/04/19 03:23:04;;;;;;;6.63;3.70;;;8.70;99.90;;;;;;5032685;28;20049;-37
2023/04/19 03:25:32;;;;;;;7.05;3.65;;;8.60;99.90;;;;;;5022677;28;20064;-37
2023/04/19 03:27:57;;;;;;;7.13;3.58;;;8.60;99.90;;;;;;5033747;28;20052;-38
2023/04/19 03:30:23;;;;;;;8.35;3.35;;;8.60;99.90;;;;;;5022122;28;20049;-36
2023/04/19 03:32:50;;;;;;;9.77;3.67;;;8.50;99.90;;;;;;5020912;28;20061;-37
2023/04/19 03:35:16;;;;;;;7.53;3.17;;;8.50;99.90;;;;;;5025472;28;20128;-36
2023/04/19 03:37:42;;;;;;;8.00;3.88;;;8.40;99.90;;;;;;5036405;28;20144;-36
2023/04/19 03:40:08;;;;;;;7.85;3.85;;;8.30;99.90;;;;;;5031959;28;20447;-36
2023/04/19 03:42:34;;;;;;;7.78;4.10;;;8.30;99.90;;;;;;5041664;28;20559;-37
2023/04/19 03:45:00;;;;;;;5.82;3.35;;;8.20;99.90;;;;;;5029636;28;20055;-37
2023/04/19 03:47:26;;;;;;;5.78;3.25;;;8.20;99.90;;;;;;5028363;28;20131;-38
2023/04/19 03:49:51;;;;;;;8.73;3.47;;;8.10;99.90;;;;;;5023651;28;20045;-36
2023/04/19 03:52:17;;;;;;;6.65;3.50;;;8.10;99.90;;;;;;5051556;28;20045;-37
2023/04/19 03:54:43;;;;;;;9.20;3.65;;;8.10;99.90;;;;;;5034647;28;20045;-36
2023/04/19 03:57:12;;;;;;;7.45;3.97;;;8.00;99.90;;;;;;5037719;28;20414;-37
2023/04/19 03:59:37;;;;;;;6.93;3.88;;;8.00;99.90;;;;;;5030891;28;20439;-38
2023/04/19 04:02:04;;;;;;;7.70;3.28;;;8.00;99.90;;;;;;5043306;28;20084;-37
2023/04/19 04:04:30;;;;;;;8.73;4.07;;;7.90;99.90;;;;;;5017304;28;20107;-37
2023/04/19 04:06:56;;;;;;;8.27;4.60;;;7.90;99.90;;;;;;5027291;28;20042;-38
2023/04/19 04:09:21;;;;;;;10.55;4.35;;;7.90;99.90;;;;;;5031370;28;20590;-36
2023/04/19 04:11:47;;;;;;;8.48;4.10;;;7.80;99.90;;;;;;5034996;28;20422;-36
2023/04/19 04:14:13;;;;;;;7.13;4.07;;;7.80;99.90;;;;;;5049927;28;20097;-36
2023/04/19 04:16:38;;;;;;;8.00;4.05;;;7.70;99.90;;;;;;5030481;28;20042;-36
2023/04/19 04:19:04;;;;;;;8.32;4.80;;;7.60;99.90;;;;;;5027620;28;20063;-37
2023/04/19 04:21:30;;;;;;;8.98;4.30;;;7.60;99.90;;;;;;5021624;28;20452;-43
2023/04/19 04:23:56;;;;;;;7.63;3.88;;;7.50;99.90;;;;;;5017683;28;20053;-37
2023/04/19 04:26:24;;;;;;;9.65;4.03;;;7.40;99.90;;;;;;5016871;28;20057;-37
2023/04/19 04:28:50;;;;;;;6.68;3.45;;;7.40;99.90;;;;;;5028576;28;20045;-35
2023/04/19 04:31:17;;;;;;;8.30;4.50;;;7.30;99.90;;;;;;5025324;28;20522;-37
2023/04/19 04:33:44;;;;;;;7.88;4.03;;;7.20;99.90;;;;;;5026099;28;20541;-37
2023/04/19 04:36:10;;;;;;;9.57;4.78;;;7.20;99.90;;;;;;5029685;28;20053;-38
2023/04/19 04:38:36;;;;;;;9.15;3.92;;;7.10;99.90;;;;;;5024652;28;20057;-37
2023/04/19 04:41:02;;;;;;;7.13;3.80;;;7.10;99.90;;;;;;5019871;28;20064;-36
2023/04/19 04:43:28;;;;;;;7.18;3.80;;;7.10;99.90;;;;;;5024341;28;20045;-38
2023/04/19 04:45:56;;;;;;;9.18;4.40;;;7.00;99.90;;;;;;5021920;28;20061;-37
2023/04/19 04:48:22;;;;;;;11.73;4.45;;;6.90;99.90;;;;;;5017348;28;20045;-37
2023/04/19 04:50:48;;;;;;;11.82;3.55;;;6.90;99.90;;;;;;5036717;28;20107;-37
2023/04/19 04:53:14;;;;;;;7.13;3.97;;;6.90;99.90;;;;;;5025040;28;20422;-38
2023/04/19 04:55:40;;;;;;;7.35;3.60;;;6.90;99.90;;;;;;5026459;28;20054;-44
2023/04/19 04:58:06;;;;;;;5.50;3.33;;;6.90;99.90;;;;;;5036452;28;20057;-38
2023/04/19 05:00:32;;;;;;;6.38;3.90;;;6.90;99.90;;;;;;5021234;28;20144;-38
2023/04/19 05:02:58;;;;;;;8.23;3.75;;;6.90;99.90;;;;;;5026241;28;20063;-37
2023/04/19 05:05:24;;;;;;;7.47;3.65;;;6.90;99.90;;;;;;5024198;28;20499;-37
2023/04/19 05:07:50;;;;;;;7.97;3.08;;;6.90;99.90;;;;;;5024699;28;20057;-37
2023/04/19 05:10:15;;;;;;;7.25;3.20;;;6.90;99.90;;;;;;5015211;28;20102;-37
2023/04/19 05:12:41;;;;;;;7.80;3.60;;;6.90;99.90;;;;;;5020272;28;20528;-38
2023/04/19 05:15:07;;;;;;;7.57;3.60;;;6.90;99.90;;;;;;5025254;28;20065;-38
2023/04/19 05:17:33;;;;;;;6.43;3.17;;;6.90;99.90;;;;;;5016882;28;20045;-38
2023/04/19 05:19:59;;;;;;;6.18;3.42;;;6.90;99.90;;;;;;5011413;28;20053;-37
2023/04/19 05:22:25;;;;;;;6.55;3.20;;;6.90;99.90;;;;;;5015824;28;20137;-36
2023/04/19 05:24:51;;;;;;;5.65;3.10;;;6.90;99.90;;;;;;5027688;28;20167;-37
2023/04/19 05:27:16;;;;;;;6.03;3.00;;;6.90;99.90;;;;;;5026187;28;20491;-38
2023/04/19 05:29:42;;;;;;;6.95;3.25;;;6.90;99.90;;;;;;5036755;28;20576;-37
2023/04/19 05:32:08;;;;;;;7.55;3.17;;;6.90;99.90;;;;;;5026665;28;20056;-37
2023/04/19 05:34:35;;;;;;;6.15;2.92;;;6.90;99.90;;;;;;5038269;28;20218;-37
2023/04/19 05:37:02;;;;;;;7.75;3.15;;;6.90;99.90;;;;;;5021469;28;20051;-36
2023/04/19 05:39:28;;;;;;;6.43;3.22;;;6.90;99.90;;;;;;5020853;28;20071;-37
2023/04/19 05:41:53;;;;;;;5.82;3.17;;;7.00;99.90;;;;;;5018646;28;20053;-36
2023/04/19 05:44:19;;;;;;;5.30;2.80;;;7.00;99.90;;;;;;5024629;28;20494;-37
2023/04/19 05:46:45;;;;;;;6.70;2.90;;;7.00;99.90;;;;;;5027811;28;20064;-36
2023/04/19 05:49:10;;;;;;;7.28;3.80;;;7.10;99.90;;;;;;5009902;28;20083;-37
2023/04/19 05:51:36;;;;;;;7.57;3.28;;;7.10;99.90;;;;;;5017183;28;20058;-37
2023/04/19 05:54:02;;;;;;;8.57;3.40;;;7.10;99.90;;;;;;5016046;28;20141;-37
2023/04/19 05:56:28;;;;;;;6.45;3.17;;;7.20;99.90;;;;;;5012150;28;20054;-37
2023/04/19 05:58:55;;;;;;;6.43;2.65;;;7.20;99.90;;;;;;5012335;28;20056;-40
2023/04/19 06:01:21;;;;;;;5.13;2.90;;;7.30;99.90;;;;;;5013070;28;20079;-37
2023/04/19 06:03:51;;;;;;;6.53;2.72;;;7.40;99.90;;;;;;5031297;28;20545;-36
2023/04/19 06:06:18;;;;;;;6.28;2.88;;;7.40;99.90;;;;;;5028485;28;20414;-36
2023/04/19 06:08:43;;;;;;;5.45;2.65;;;7.50;99.90;;;;;;5022310;28;20058;-36
2023/04/19 06:11:09;;;;;;;7.63;2.90;;;7.50;99.90;;;;;;5011822;28;20049;-35
2023/04/19 06:13:35;;;;;;;5.22;2.90;;;7.60;99.90;;;;;;5008678;28;20058;-36
2023/04/19 06:16:01;;;;;;;6.82;3.03;;;7.60;99.90;;;;;;5015095;28;20045;-37
2023/04/19 06:18:27;;;;;;;4.75;2.20;;;7.60;99.90;;;;;;5012499;28;20461;-37
2023/04/19 06:20:52;;;;;;;5.22;2.60;;;7.60;99.90;;;;;;5034200;28;20048;-37
2023/04/19 06:23:18;;;;;;;6.03;2.47;;;7.70;99.90;;;;;;5023987;28;20054;-37
2023/04/19 06:25:44;;;;;;;6.07;3.03;;;7.70;99.90;;;;;;5015352;28;20061;-38
2023/04/19 06:28:09;;;;;;;5.18;2.33;;;7.70;99.90;;;;;;5023511;28;20436;-35
2023/04/19 06:30:35;;;;;;;8.38;2.58;;;7.80;99.90;;;;;;5021276;28;20069;-38
2023/04/19 06:33:01;;;;;;;4.63;2.35;;;7.80;99.90;;;;;;5015290;28;20037;-34
2023/04/19 06:35:26;;;;;;;4.70;2.30;;;7.80;99.90;;;;;;5027632;28;20053;-36
2023/04/19 06:37:52;;;;;;;6.78;2.55;;;7.90;99.90;;;;;;5020276;28;20136;-36
2023/04/19 06:40:18;;;;;;;4.82;1.90;;;7.90;99.90;;;;;;5025619;28;20046;-38
2023/04/19 06:42:43;;;;;;;4.95;2.00;;;8.00;99.90;;;;;;5016133;28;20592;-36
2023/04/19 06:45:10;;;;;;;3.90;1.77;;;8.00;99.90;;;;;;5021917;28;20061;-36
2023/04/19 06:47:35;;;;;;;3.75;2.00;;;8.10;99.90;;;;;;5032431;28;20487;-36
2023/04/19 06:50:01;;;;;;;4.70;2.13;;;8.10;99.90;;;;;;5048398;28;20049;-37
2023/04/19 06:52:28;;;;;;;3.90;1.92;;;8.10;99.90;;;;;;5018120;28;20419;-37
2023/04/19 06:54:53;;;;;;;3.28;1.75;;;8.20;99.90;;;;;;5014627;28;20423;-38
2023/04/19 06:57:19;;;;;;;4.20;1.80;;;8.30;99.90;;;;;;5031092;28;20055;-38
2023/04/19 06:59:45;;;;;;;5.78;2.00;;;8.30;99.90;;;;;;5022310;28;20056;-36
2023/04/19 07:02:10;;;;;;;3.72;1.80;;;8.40;99.90;;;;;;5019093;28;20115;-36
2023/04/19 07:04:36;;;;;;;6.70;2.33;;;8.40;99.90;;;;;;5036168;28;20057;-38
2023/04/19 07:07:02;;;;;;;3.75;1.80;;;8.50;99.90;;;;;;5033145;28;20044;-36
2023/04/19 07:09:28;;;;;;;4.25;1.77;;;8.60;99.90;;;;;;5031722;28;20133;-38
2023/04/19 07:11:54;;;;;;;3.55;1.83;;;8.60;99.90;;;;;;5015641;28;20140;-37
2023/04/19 07:14:20;;;;;;;3.88;1.90;;;8.70;99.90;;;;;;5010227;28;20552;-36
2023/04/19 07:16:46;;;;;;;4.72;1.42;;;8.70;99.90;;;;;;5015266;28;20189;-37
2023/04/19 07:19:12;;;;;;;8.07;1.42;;;8.80;99.90;;;;;;5015824;28;20053;-36
2023/04/19 07:21:38;;;;;;;3.13;1.70;;;8.90;99.90;;;;;;5017565;28;20061;-37
2023/04/19 07:24:07;;;;;;;4.60;1.63;;;8.90;99.90;;;;;;5021554;28;20060;-35
2023/04/19 07:26:33;;;;;;;4.85;1.75;;;9.00;99.90;;;;;;5018581;28;20049;-36
2023/04/19 07:28:59;;;;;;;4.00;1.48;;;9.10;99.90;;;;;;5018167;28;20811;-37
2023/04/19 07:31:25;;;;;;;4.10;1.70;;;9.20;99.90;;;;;;5023379;28;20483;-37
2023/04/19 07:33:51;;;;;;;4.22;1.70;;;9.30;99.90;;;;;;5032907;28;20123;-38
2023/04/19 07:36:17;;;;;;;3.67;1.55;;;9.30;99.90;;;;;;5026750;28;20500;-37
2023/04/19 07:38:43;;;;;;;7.20;1.60;;;9.40;99.90;;;;;;5037336;28;20140;-37
2023/04/19 07:41:09;;;;;;;5.68;1.13;;;9.50;99.90;;;;;;5024690;28;20056;-37
2023/04/19 07:43:35;;;;;;;3.55;1.05;;;9.50;99.90;;;;;;5029961;28;20060;-37
2023/04/19 07:46:01;;;;;;;6.07;1.23;;;9.60;99.90;;;;;;5020324;28;20053;-37
2023/04/19 07:48:27;;;;;;;2.47;1.17;;;9.60;99.90;;;;;;5017769;28;20514;-38
2023/04/19 07:50:53;;;;;;;2.78;1.35;;;9.70;99.90;;;;;;5020318;28;20057;-37
2023/04/19 07:53:18;;;;;;;2.70;0.90;;;9.70;99.90;;;;;;5031095;28;20048;-37
2023/04/19 07:55:44;;;;;;;4.47;1.00;;;9.80;99.90;;;;;;5030769;28;20460;-37
2023/04/19 07:58:10;;;;;;;2.22;1.10;;;9.90;99.90;;;;;;5021312;28;20462;-37
2023/04/19 08:00:36;;;;;;;3.03;0.70;;;9.90;99.90;;;;;;5029267;28;20085;-37
2023/04/19 08:03:02;;;;;;;3.42;0.80;;;10.00;99.90;;;;;;5015654;28;20523;-37
2023/04/19 08:05:30;;;;;;;2.85;0.90;;;10.10;99.90;;;;;;5031517;28;20079;-37
2023/04/19 08:07:55;;;;;;;2.33;0.90;;;10.20;99.90;;;;;;5021548;28;20499;-37
2023/04/19 08:10:22;;;;;;;1.55;0.75;;;10.40;99.90;;;;;;5020452;28;20041;-38
2023/04/19 08:12:48;;;;;;;2.22;0.80;;;10.40;99.90;;;;;;5033249;28;20049;-38
2023/04/19 08:15:15;;;;;;;2.13;0.82;;;10.50;99.90;;;;;;5013312;28;20095;-37
2023/04/19 08:17:44;;;;;;;2.28;0.70;;;10.70;99.90;;;;;;5019208;28;20050;-38
2023/04/19 08:20:13;;;;;;;2.08;0.82;;;10.70;99.90;;;;;;5031435;28;20132;-36
2023/04/19 08:22:39;;;;;;;1.63;0.60;;;10.90;99.90;;;;;;5022007;28;20049;-37
2023/04/19 08:25:06;;;;;;;2.50;0.70;;;11.00;99.90;;;;;;5014110;28;20061;-37
2023/04/19 08:27:32;;;;;;;1.80;0.57;;;11.00;99.90;;;;;;5015079;28;20423;-38
2023/04/19 08:29:57;;;;;;;2.33;1.17;;;11.10;99.90;;;;;;5019632;28;20503;-37
2023/04/19 08:32:23;;;;;;;2.55;0.75;;;11.20;99.90;;;;;;5018095;28;20085;-39
2023/04/19 08:34:49;;;;;;;2.25;0.73;;;11.30;99.90;;;;;;5026935;28;20223;-45
2023/04/19 08:37:15;;;;;;;2.03;0.70;;;11.30;99.90;;;;;;5014792;28;22280;-38
2023/04/19 08:39:40;;;;;;;2.72;0.85;;;11.40;99.90;;;;;;5015247;28;20054;-38
2023/04/19 08:42:08;;;;;;;2.40;0.88;;;11.50;99.90;;;;;;5018312;28;20082;-37
2023/04/19 08:44:37;;;;;;;2.85;0.65;;;11.60;99.90;;;;;;5041218;28;20048;-37
2023/04/19 08:47:03;;;;;;;1.42;0.55;;;11.70;99.90;;;;;;5047595;28;20054;-39
2023/04/19 08:49:30;;;;;;;1.73;0.63;;;11.80;99.90;;;;;;5024339;28;20061;-37
2023/04/19 08:52:00;;;;;;;7.78;0.90;;;11.80;99.90;;;;;;5046390;28;20541;-38
2023/04/19 08:54:28;;;;;;;3.70;0.75;;;11.90;99.90;;;;;;5033145;28;20049;-39
2023/04/19 08:56:53;;;;;;;3.33;0.60;;;11.90;99.90;;;;;;5036302;28;20050;-37
2023/04/19 08:59:19;;;;;;;1.88;0.73;;;12.00;99.90;;;;;;5027949;28;20181;-37
2023/04/19 09:01:45;;;;;;;2.70;0.63;;;12.10;99.90;;;;;;5027102;28;20057;-37
2023/04/19 09:04:11;;;;;;;2.05;0.73;;;12.20;99.90;;;;;;5020385;28;20707;-37
2023/04/19 09:06:37;;;;;;;2.15;0.73;;;12.30;99.90;;;;;;5027595;28;20076;-37
2023/04/19 09:09:17;;;;;;;4.65;1.08;;;12.30;99.90;;;;;;5033521;28;20049;-36
2023/04/19 09:11:43;;;;;;;4.00;1.08;;;12.40;99.90;;;;;;5011997;28;20123;-37
2023/04/19 09:14:13;;;;;;;3.33;1.05;;;12.40;99.90;;;;;;5022846;28;20510;-36
2023/04/19 09:16:40;;;;;;;2.88;1.20;;;12.40;99.90;;;;;;5028579;28;20509;-37
2023/04/19 09:19:08;;;;;;;4.38;1.00;;;12.50;99.90;;;;;;5006305;28;20052;-37
2023/04/19 09:21:34;;;;;;;3.22;1.17;;;12.50;99.90;;;;;;5018801;28;20053;-39
2023/04/19 09:24:02;;;;;;;2.75;1.25;;;12.60;99.90;;;;;;5014219;28;20485;-36
2023/04/19 09:26:28;;;;;;;2.72;1.17;;;12.70;99.90;;;;;;5028374;28;20049;-36
2023/04/19 09:29:03;;;;;;;3.45;1.17;;;12.70;99.90;;;;;;5017763;28;20095;-38
2023/04/19 09:31:30;;;;;;;2.78;1.27;;;12.80;99.90;;;;;;5029712;28;20049;-37
2023/04/19 09:33:55;;;;;;;2.38;1.10;;;12.90;99.90;;;;;;5020422;28;20050;-37
2023/04/19 09:36:32;;;;;;;2.50;1.10;;;13.00;99.90;;;;;;5022520;28;20049;-38
2023/04/19 09:38:58;;;;;;;2.00;0.95;;;13.00;99.90;;;;;;5011932;28;20054;-37
2023/04/19 09:41:27;;;;;;;3.10;1.20;;;13.10;99.90;;;;;;5034788;28;20045;-37
2023/04/19 09:43:54;;;;;;;4.32;1.10;;;13.10;99.90;;;;;;5021977;28;20435;-36
2023/04/19 09:46:30;;;;;;;2.80;1.30;;;13.20;99.90;;;;;;5021484;28;20466;-37
2023/04/19 09:49:22;;;;;;;2.20;1.00;;;13.30;99.90;;;;;;5029852;28;20054;-37
2023/04/19 09:51:52;;;;;;;2.80;1.05;;;13.30;99.90;;;;;;5034514;28;20045;-38
2023/04/19 09:54:20;;;;;;;4.40;1.35;;;13.40;99.90;;;;;;5036118;28;20132;-37
2023/04/19 09:56:46;;;;;;;2.22;1.00;;;13.40;99.90;;;;;;5033316;28;20045;-37
2023/04/19 09:59:12;;;;;;;2.45;1.10;;;13.50;99.90;;;;;;5021889;28;20374;-36
2023/04/19 10:01:53;;;;;;;3.47;1.02;;;13.60;99.90;;;;;;5012063;28;20057;-37
2023/04/19 10:04:23;;;;;;;3.10;1.20;;;13.70;99.90;;;;;;5012335;28;20564;-36
2023/04/19 10:06:51;;;;;;;2.80;1.05;;;13.70;99.90;;;;;;5030039;28;20080;-36
2023/04/19 10:09:22;;;;;;;3.08;1.00;;;13.80;99.90;;;;;;5032292;28;20052;-37
2023/04/19 10:11:52;;;;;;;5.07;1.27;;;13.80;99.90;;;;;;5011753;28;20052;-38
2023/04/19 10:14:23;;;;;;;1.65;0.80;;;13.90;99.90;;;;;;5014921;28;20046;-37
2023/04/19 10:16:49;;;;;;;4.18;1.20;;;13.90;99.90;;;;;;5020762;28;20071;-39
2023/04/19 10:19:18;;;;;;;2.83;1.15;;;14.00;99.90;;;;;;5026376;28;20099;-38
2023/04/19 10:21:46;;;;;;;3.83;1.13;;;14.10;99.90;;;;;;5022996;28;20107;-38
2023/04/19 10:24:13;;;;;;;2.78;0.77;;;14.10;99.90;;;;;;5028878;28;20061;-47
2023/04/19 10:27:04;;;;;;;6.22;2.03;;;14.20;99.90;;;;;;5033771;28;20045;-36
2023/04/19 10:29:54;;;;;;;3.80;0.95;;;14.30;99.90;;;;;;5016966;28;20092;-39
2023/04/19 10:32:20;;;;;;;3.58;1.15;;;14.40;99.90;;;;;;5030448;28;20538;-37
2023/04/19 10:34:46;;;;;;;1.77;0.95;;;14.50;99.90;;;;;;5036901;28;20110;-39
2023/04/19 10:37:14;;;;;;;2.33;1.00;;;14.50;99.90;;;;;;5016427;28;20045;-40
2023/04/19 10:39:42;;;;;;;2.78;1.02;;;14.60;99.90;;;;;;5018565;28;20488;-39
2023/04/19 10:42:08;;;;;;;1.77;0.95;;;14.70;99.90;;;;;;5031936;28;20144;-37
2023/04/19 10:44:33;;;;;;;4.13;1.05;;;14.80;99.90;;;;;;5029320;28;20059;-39
2023/04/19 10:46:59;;;;;;;4.97;1.02;;;14.90;99.90;;;;;;5042102;28;20063;-40
2023/04/19 10:49:27;;;;;;;3.88;1.17;;;14.90;99.90;;;;;;5025710;28;20518;-39
2023/04/19 10:51:53;;;;;;;2.78;1.10;;;15.00;99.90;;;;;;5041047;28;20557;-39
2023/04/19 10:54:30;;;;;;;3.10;0.82;;;15.00;99.90;;;;;;5029172;28;20460;-39
2023/04/19 10:57:03;;;;;;;5.25;1.15;;;15.10;99.90;;;;;;5015119;28;20071;-40
2023/04/19 10:59:31;;;;;;;1.85;0.93;;;15.10;99.90;;;;;;5024787;28;20064;-38
2023/04/19 11:01:59;;;;;;;2.35;0.77;;;15.30;99.90;;;;;;5037220;28;20065;-39
2023/04/19 11:04:31;;;;;;;3.22;0.90;;;15.40;99.90;;;;;;5022870;28;20109;-39
2023/04/19 11:07:00;;;;;;;2.78;0.90;;;15.40;99.90;;;;;;5030659;28;20050;-39
2023/04/19 11:09:30;;;;;;;2.92;0.95;;;15.40;99.90;;;;;;5022608;28;20067;-39
2023/04/19 11:12:12;;;;;;;3.55;1.00;;;15.40;99.90;;;;;;5020192;28;20147;-38
2023/04/19 11:14:43;;;;;;;3.10;1.00;;;15.40;99.90;;;;;;5037551;28;20556;-38
2023/04/19 11:17:19;;;;;;;5.18;1.10;;;15.50;99.90;;;;;;5016699;28;20308;-37
2023/04/19 11:19:54;;;;;;;2.17;1.10;;;15.60;99.90;;;;;;5027240;28;20059;-37
2023/04/19 11:22:34;;;;;;;2.67;0.73;;;15.70;99.90;;;;;;5015267;28;20064;-38
2023/04/19 11:25:20;;;;;;;2.13;0.82;;;15.70;99.90;;;;;;5027692;28;20056;-38
2023/04/19 11:27:51;;;;;;;3.28;0.95;;;15.70;99.90;;;;;;5021495;28;20119;-40
2023/04/19 11:30:27;;;;;;;2.15;1.02;;;15.70;99.90;;;;;;5030406;28;20051;-40
2023/04/19 11:32:54;;;;;;;1.90;0.90;;;15.70;99.90;;;;;;5042177;28;20518;-39
2023/04/19 11:35:27;;;;;;;2.17;1.00;;;15.80;99.90;;;;;;5029959;28;20431;-40
2023/04/19 11:37:55;;;;;;;1.63;0.80;;;15.90;99.90;;;;;;5033449;28;20068;-41
2023/04/19 11:40:22;;;;;;;3.38;0.90;;;16.00;99.90;;;;;;5025276;28;20518;-41
2023/04/19 11:42:59;;;;;;;1.92;1.00;;;16.00;99.90;;;;;;5020853;28;20060;-39
2023/04/19 11:45:28;;;;;;;5.00;0.98;;;16.00;99.90;;;;;;5034371;28;20495;-39
2023/04/19 11:47:54;;;;;;;2.17;0.88;;;16.10;99.90;;;;;;5031873;28;20547;-38
2023/04/19 11:50:38;;;;;;;2.53;0.90;;;16.10;99.90;;;;;;5031811;28;20080;-40
2023/04/19 11:53:19;;;;;;;2.60;1.10;;;16.10;99.90;;;;;;5015352;28;20050;-39
2023/04/19 11:56:05;;;;;;;1.83;0.90;;;16.20;99.90;;;;;;5012230;28;20045;-38
2023/04/19 11:58:46;;;;;;;5.40;1.10;;;16.30;99.90;;;;;;5032413;28;20037;-39
2023/04/19 12:01:24;;;;;;;3.83;0.98;;;16.50;99.90;;;;;;5034099;28;20052;-39
2023/04/19 12:03:55;;;;;;;2.40;1.10;;;16.70;99.90;;;;;;5033857;28;20496;-38
2023/04/19 12:06:27;;;;;;;1.73;0.90;;;16.80;99.90;;;;;;5020462;28;20480;-39
2023/04/19 12:08:54;;;;;;;7.72;1.50;;;16.90;99.90;;;;;;5015495;28;20499;-39
2023/04/19 12:11:25;;;;;;;3.30;0.93;;;17.00;99.90;;;;;;5021767;28;20056;-40
2023/04/19 12:14:10;;;;;;;2.25;0.95;;;17.00;99.90;;;;;;5019987;28;20056;-39
2023/04/19 12:16:37;;;;;;;7.40;0.77;;;17.10;99.90;;;;;;5025772;28;20105;-38
2023/04/19 12:19:21;;;;;;;2.15;0.82;;;17.20;99.90;;;;;;5027173;28;20439;-39
2023/04/19 12:21:47;;;;;;;5.15;0.93;;;17.20;99.90;;;;;;5025142;28;20148;-40
2023/04/19 12:24:16;;;;;;;8.05;1.17;;;17.30;99.90;;;;;;5029583;28;20477;-38
2023/04/19 12:26:57;;;;;;;1.48;0.70;;;17.40;99.90;;;;;;5030268;28;20060;-40
2023/04/19 12:29:23;;;;;;;1.55;0.73;;;17.50;99.90;;;;;;5017972;28;20044;-38
2023/04/19 12:31:48;;;;;;;1.55;0.70;;;17.50;99.90;;;;;;5024970;28;20060;-39
2023/04/19 12:34:14;;;;;;;5.38;0.95;;;17.50;99.90;;;;;;5020493;28;20053;-40
2023/04/19 12:36:40;;;;;;;4.45;0.90;;;17.50;99.90;;;;;;5027395;28;20055;-40
2023/04/19 12:39:06;;;;;;;3.13;1.10;;;17.60;99.90;;;;;;5016408;28;20048;-38
2023/04/19 12:41:31;;;;;;;3.40;0.98;;;17.60;99.90;;;;;;5024426;28;20194;-40
2023/04/19 12:43:57;;;;;;;3.25;0.93;;;17.60;99.90;;;;;;5019681;28;20054;-38
2023/04/19 12:46:23;;;;;;;1.92;0.75;;;17.70;99.90;;;;;;5013052;28;20668;-38
2023/04/19 12:48:48;;;;;;;3.15;0.90;;;17.70;99.90;;;;;;5018076;28;20045;-39
2023/04/19 12:51:14;;;;;;;3.83;1.00;;;17.70;99.90;;;;;;5028060;28;20545;-38
2023/04/19 12:53:40;;;;;;;4.57;1.08;;;17.80;99.90;;;;;;5023968;28;20053;-38